Historyczne dane pomiarowe

Dodano dane terminowe – wersja testowa.

Dane z okresu 1951-2018

Wersja bazy: 1.27 [2018-11-28, lista zmian], aktualizacja planowana na 2018-12-07

Dane meteo z obszaru Polski uzyskane na podstawie danych udostępnionych przez Instytut Meteorologii i Gospodarki Wodnej – Państwowy Instytut Badawczy.

 

Wybierz Datę:    

       

TemperaturaWilgotnośćWiatrCiśnienieOpadyŚniegCzas trwania zjawisk
 Stacja t tx tn tng RH VA  wxwx mslp ppp RRR   cm mm wxwxwxwxwxwxwx
2018-11-30 -9.2 -3.6-13.0-18.0 85.0 2.6 2.6 0.9 0.0 0.0- 921.9 0.0 0.0 0.0 4 0.0 5.9----- 14.0-
2018-11-29-11.0 -4.6-15.0-20.2 84.0 2.2 0.0 0.4 0.0 0.0- 928.0 0.0 0.0 0.0 5 1.0 6.6----- 15.0-
2018-11-28 -6.4 -2.9-10.0-13.4 77.5 3.0 3.9 2.0 0.0 0.0- 924.3 0.0 0.0 0.0 6 1.0 6.2- 3.2--- 8.0-
2018-11-27 -4.8 -1.3 -7.6 -9.4 89.3 3.9 7.4 2.0 0.0 0.0- 913.8 0.0 0.0 0.0 7 1.0 0.1- 6.0-----
2018-11-26 0.4 3.0 -1.3 -1.3 97.3 6.1 8.0 2.6 0.0 0.0- 906.9 8.1 2.9 5.2- 0.0 0.0 5.8 17.3 0.9----
2018-11-25 3.7 6.7 3.0 3.0 90.9 7.2 7.9 1.3 0.0 0.0- 912.7 2.4 0.0 2.4- 0.0 2.3 7.4------
2018-11-24 3.4 8.8 -1.2 -1.9 88.0 6.8 7.3 1.5 0.0 0.0- 916.4 0.1 0.0 0.1- 0.0 0.7 2.7-- 4.6---
2018-11-23 2.3 4.0 0.5 0.5 94.9 6.8 7.9 0.5 0.0 0.0- 923.3 0.0 0.0 0.0- 0.0 0.0--- 7.7---
2018-11-22 -0.3 2.5 -2.7 -2.7 97.3 5.9 8.0 0.6 0.0 0.0- 921.2 0.0 0.0 0.0- 0.0 0.0 3.3-- 7.3---
2018-11-21 -0.5 1.0 -1.7 -1.4 97.6 5.8 8.0 0.9 0.0 0.0- 917.0 0.0 0.0 0.0 1 0.0 0.0 7.2-- 13.7---
2018-11-20 -2.1 0.9 -6.0 -8.9 91.3 4.9 7.0 0.9 0.0 0.0- 915.7 0.5 0.5 0.0 3 0.0 1.1- 0.2 2.7----
2018-11-19 -4.2 -2.2 -5.3 -7.2 85.3 3.8 8.0 1.8 0.0 0.0- 917.0 0.7 0.6 0.1 2 0.0 0.0- 11.4-----
2018-11-18 -2.2 1.8 -4.2 -4.9 82.6 4.3 6.4 0.9 0.0 0.0- 923.6 1.3 1.2 0.1- 0.0 3.1- 7.6--- 5.0-
2018-11-17 -1.1 3.8 -5.1 -6.2 71.1 3.9 2.8 1.5 0.0 0.0- 931.2 0.0 0.0 0.0- 0.0 7.0----- 13.0-
2018-11-16 0.5 2.3 -0.6 -0.2 89.5 5.7 6.8 1.5 0.0 0.0- 931.8 0.0 0.0 0.0- 0.0 0.0 0.8 1.1--- 6.0-
2018-11-15 2.7 4.7 2.0 1.3 89.0 6.6 7.6 1.3 0.0 0.0- 929.3 1.7 0.0 1.7- 0.0 0.1 4.5------
2018-11-14 4.6 9.9 3.6 2.9 85.4 7.2 7.3 2.0 0.0 0.0- 928.6 0.7 0.2 0.5- 0.0 0.0 8.6------
2018-11-13 7.4 14.4 2.0 -0.6 85.3 8.7 5.0 1.5 0.0 0.0- 925.4 1.6 0.0 1.6- 0.0 7.5 2.6--- 3.0 3.0-
2018-11-12 5.8 14.2 0.8 -1.6 82.8 7.6 2.0 1.3 0.0 0.0- 924.9 0.0 0.0 0.0- 0.0 6.8---- 7.0 8.0-
2018-11-11 5.4 14.3 -0.6 -3.1 82.3 7.2 2.1 1.3 0.0 0.0- 919.1 0.0 0.0 0.0- 0.0 7.6---- 7.0 7.0-
2018-11-10 4.7 11.8 1.6 -0.8 89.8 7.7 2.6 0.9 0.0 0.0- 917.6 0.0 0.0 0.0- 0.0 6.9---- 9.0 5.0-
2018-11-09 6.8 14.9 2.3 -0.5 84.3 8.2 3.5 1.0 0.0 0.0- 921.1 0.0 0.0 0.0- 0.0 7.4---- 7.0 5.0-
2018-11-08 7.1 16.4 2.2 -0.4 78.1 7.6 3.6 1.1 0.0 0.0- 922.3 0.0 0.0 0.0- 0.0 7.9---- 13.0--
2018-11-07 7.1 15.0 2.2 0.0 69.9 6.9 1.5 1.3 0.0 0.0- 920.3 0.0 0.0 0.0- 0.0 8.1---- 8.0 2.0-
2018-11-06 8.5 18.1 2.0 -0.2 57.5 6.0 0.3 1.5 0.0 0.0- 921.1 0.0 0.0 0.0- 0.0 8.3---- 6.0 4.0-
2018-11-05 11.7 19.3 7.0 4.8 50.9 6.6 4.6 1.5 0.0 0.0- 921.6 0.0 0.0 0.0- 0.0 7.9-------
2018-11-04 10.6 17.4 7.1 7.1 86.0 10.9 5.0 1.1 0.0 0.0- 924.3 0.0 0.0 0.0- 0.0 6.8 5.7-- 5.3---
2018-11-03 11.8 16.8 9.2 7.7 90.8 12.5 7.0 1.1 0.0 0.0- 926.7 0.2 0.0 0.2- 0.0 4.8 3.6-- 7.2---
2018-11-02 14.0 18.5 11.0 8.6 69.0 10.8 6.8 1.3 0.0 0.0- 924.2 0.9 0.0 0.9- 0.0 5.1 1.5------
2018-11-01 12.2 18.9 3.2 0.8 50.8 6.6 5.0 2.3 0.0 0.0- 922.7 0.0 0.0 0.0- 0.0 7.3---- 8.0--
2018-10-31 9.9 14.1 6.4 3.2 56.5 6.8 3.1 2.8 0.0 0.0- 923.1 0.0 0.0 0.0- 0.0 6.1-------
2018-10-30 15.5 18.2 13.1 11.6 49.8 8.9 5.0 5.6 0.0 0.0- 911.2 0.6 0.6 0.0- 0.0 0.4 1.0------
2018-10-29 15.7 17.6 11.0 10.3 66.4 11.8 6.9 3.1 0.0 0.0- 910.9 0.0 0.0 0.0- 0.0 2.6 2.7------
2018-10-28 10.3 15.3 4.9 4.9 79.8 9.7 7.0 3.0 0.0 0.0- 910.6 2.1 0.5 1.6- 0.0 1.7 7.6-- 2.1---
2018-10-27 5.4 10.6 0.8 -0.9 89.4 8.0 7.4 1.1 0.0 0.0- 909.0 11.2 3.9 7.3- 0.0 2.1 12.5---- 5.0-
2018-10-26 5.2 9.8 2.2 0.4 76.9 6.7 6.5 1.8 0.0 0.0- 912.1 0.0 0.0 0.0- 0.0 3.2 0.1---- 5.0-
2018-10-25 4.5 8.0 0.2 -0.5 80.1 6.9 7.0 3.3 0.0 0.0- 912.3 5.8 4.2 1.6- 0.0 0.4 7.8 1.1-----
2018-10-24 2.8 5.5 1.7 1.1 72.8 5.5 7.1 3.4 0.0 0.0- 907.7 0.4 0.4 0.0- 0.0 0.9 6.9 2.1-----
2018-10-23 5.0 8.7 2.7 2.7 79.4 6.9 7.8 3.1 0.0 0.0- 916.7 16.8 0.6 16.2- 0.0 1.9 13.9------
2018-10-22 6.0 11.8 1.6 0.0 84.0 7.8 5.6 1.1 0.0 0.0- 925.4 0.9 0.0 0.9- 0.0 5.2 0.3--- 7.7 2.0-
2018-10-21 3.3 6.9 2.4 2.4 93.9 7.3 7.5 1.1 0.0 0.0- 925.8 0.4 0.4 0.0- 0.0 0.0 3.8------
2018-10-20 6.9 10.0 6.7 6.7 95.5 9.5 8.0 1.4 0.0 0.0- 924.9 5.8 0.2 5.6- 0.0 0.0 14.1-- 5.1 3.7--
2018-10-19 9.9 15.6 6.9 5.0 85.3 10.4 6.8 0.8 0.0 0.0- 923.1 0.0 0.0 0.0- 0.0 2.3 0.2--- 11.0--
2018-10-18 11.5 16.3 7.5 5.8 72.0 9.6 7.3 0.8 0.0 0.0- 922.0 0.0 0.0 0.0- 0.0 2.1---- 13.0--
2018-10-17 10.9 18.3 5.7 4.1 70.1 8.9 5.6 1.3 0.0 0.0- 924.0 0.0 0.0 0.0- 0.0 7.0---- 14.0--
2018-10-16 9.1 17.8 2.6 0.4 66.4 7.3 2.5 1.0 0.0 0.0- 924.6 0.0 0.0 0.0- 0.0 9.1---- 8.0--
2018-10-15 9.4 19.3 3.1 1.2 69.4 7.9 0.5 1.1 0.0 0.0- 925.1 0.0 0.0 0.0- 0.0 9.8---- 13.0--
2018-10-14 10.3 19.8 3.5 1.3 67.8 8.0 0.0 1.1 0.0 0.0- 926.7 0.0 0.0 0.0- 0.0 9.8---- 13.0--
2018-10-13 10.7 19.5 4.8 2.5 75.0 9.3 0.0 1.1 0.0 0.0- 930.2 0.0 0.0 0.0- 0.0 9.8---- 10.0--
2018-10-12 10.1 18.9 3.5 1.4 75.1 9.0 0.1 1.1 0.0 0.0- 929.7 0.0 0.0 0.0- 0.0 9.8---- 10.0 2.0-
2018-10-11 11.3 20.4 5.1 2.8 79.1 10.3 0.6 1.1 0.0 0.0- 927.1 0.0 0.0 0.0- 0.0 9.9---- 14.0--
2018-10-10 11.5 19.0 6.4 4.4 83.9 11.2 0.9 0.8 0.0 0.0- 928.1 0.0 0.0 0.0- 0.0 8.7---- 15.0--
2018-10-09 11.4 18.4 5.9 4.2 84.3 11.2 2.6 1.0 0.0 0.0- 926.2 0.0 0.0 0.0- 0.0 7.4---- 12.0--
2018-10-08 10.8 15.3 8.8 8.8 91.8 11.9 7.3 1.3 0.0 0.0- 923.6 0.0 0.0 0.0- 0.0 4.6 6.6-- 2.8 3.0--
2018-10-07 15.7 19.8 12.7 9.6 66.0 11.6 5.6 1.5 0.0 0.0- 917.5 13.0 0.0 13.0- 0.0 3.4 3.5------
2018-10-06 11.0 20.8 0.7 -1.1 69.3 8.6 3.0 1.5 0.0 0.0- 920.8 0.0 0.0 0.0- 0.0 9.7---- 3.0 4.0-
2018-10-05 5.9 14.8 -1.0 -2.8 79.6 7.2 0.3 0.9 0.0 0.0- 927.7 0.0 0.0 0.0- 0.0 9.7---- 4.0 7.0-
2018-10-04 4.6 8.6 2.6 0.6 76.0 6.4 4.8 1.5 0.0 0.0- 927.0 0.0 0.0 0.0- 0.0 3.8 0.2--- 2.0 2.0-
2018-10-03 5.7 8.9 1.2 -0.3 77.1 7.1 6.8 2.8 0.0 0.0- 918.4 5.8 4.9 0.9- 0.0 1.4 5.1------
2018-10-02 4.4 8.3 2.6 1.7 86.4 7.3 6.4 1.0 0.0 0.0- 916.9 7.9 7.8 0.1- 0.0 0.0 14.2--- 1.9--
86.1 ms

 

Źródłem pochodzenia danych jest Instytut Meteorologii i Gospodarki Wodnej – Państwowy Instytut Badawczy. Dane Instytutu Meteorologii i Gospodarki Wodnej – Państwowego Instytutu Badawczego zostały przetworzone.

Dane źródłowe można odnaleźć na stronie https://dane.imgw.pl